Time;durP1;ratioP1;P1;durP2;ratioP2;P2;SDS_P1;SDS_P2;PMS_P1;PMS_P2;Temp;Humidity;BMP_temperature;BMP_pressure;BME280_temperature;BME280_humidity;BME280_pressure;Samples;Min_cycle;Max_cycle;Signal;HPM_P1;HPM_P2
2023/06/29 00:01:05;;;;;;;21.35;11.68;;;18.70;99.90;;;;;;5042452;28;20041;-82
2023/06/29 00:03:34;;;;;;;18.45;10.35;;;18.70;99.90;;;;;;5047287;28;20017;-82
2023/06/29 00:06:01;;;;;;;19.30;11.38;;;18.60;99.90;;;;;;5047902;28;20053;-81
2023/06/29 00:08:29;;;;;;;18.35;11.05;;;18.60;99.90;;;;;;5047862;28;20163;-82
2023/06/29 00:10:55;;;;;;;18.17;11.20;;;18.60;99.90;;;;;;5038970;28;20535;-82
2023/06/29 00:13:22;;;;;;;20.52;10.88;;;18.60;99.90;;;;;;5026318;28;20555;-82
2023/06/29 00:15:48;;;;;;;18.13;10.27;;;18.60;99.90;;;;;;5028307;28;20521;-82
2023/06/29 00:18:15;;;;;;;19.55;10.70;;;18.60;99.90;;;;;;5027765;28;20037;-82
2023/06/29 00:20:42;;;;;;;22.50;11.23;;;18.60;99.90;;;;;;5044843;28;20445;-82
2023/06/29 00:23:08;;;;;;;16.85;10.90;;;18.70;99.90;;;;;;5027876;28;20037;-82
2023/06/29 00:25:34;;;;;;;18.67;11.23;;;18.60;99.90;;;;;;5045510;28;20033;-82
2023/06/29 00:28:01;;;;;;;19.13;11.32;;;18.60;99.90;;;;;;5047749;28;20031;-82
2023/06/29 00:30:27;;;;;;;17.30;10.45;;;18.70;99.90;;;;;;5038695;28;20571;-83
2023/06/29 00:32:52;;;;;;;18.55;10.90;;;18.70;99.90;;;;;;5047945;28;20021;-82
2023/06/29 00:35:18;;;;;;;17.17;10.13;;;18.70;99.90;;;;;;5047115;28;20029;-82
2023/06/29 00:37:44;;;;;;;17.33;10.55;;;18.70;99.90;;;;;;5045730;28;20672;-82
2023/06/29 00:40:10;;;;;;;17.95;11.30;;;18.60;99.90;;;;;;5042172;28;20032;-82
2023/06/29 00:42:36;;;;;;;17.20;11.13;;;18.60;99.90;;;;;;5047609;28;20057;-83
2023/06/29 00:45:05;;;;;;;22.00;14.15;;;18.60;99.90;;;;;;5045674;28;20108;-83
2023/06/29 00:47:32;;;;;;;21.67;11.63;;;18.60;99.90;;;;;;5027554;28;20041;-83
2023/06/29 00:49:59;;;;;;;20.95;11.90;;;18.60;99.90;;;;;;5041858;28;20037;-82
2023/06/29 00:52:25;;;;;;;22.70;12.73;;;18.60;99.90;;;;;;5046163;28;20035;-82
2023/06/29 00:54:53;;;;;;;23.67;13.15;;;18.60;99.90;;;;;;5046365;28;20025;-84
2023/06/29 00:57:19;;;;;;;22.42;13.45;;;18.60;99.90;;;;;;5047323;28;20040;-83
2023/06/29 00:59:45;;;;;;;25.10;13.57;;;18.60;99.90;;;;;;5046649;28;20029;-83
2023/06/29 01:02:11;;;;;;;22.20;13.30;;;18.60;99.90;;;;;;5038295;28;20036;-83
2023/06/29 01:04:37;;;;;;;21.33;12.10;;;18.60;99.90;;;;;;5030674;28;20054;-82
2023/06/29 01:07:06;;;;;;;24.42;14.48;;;18.70;99.90;;;;;;5030538;28;20385;-82
2023/06/29 01:09:32;;;;;;;29.20;15.43;;;18.60;99.90;;;;;;5034014;28;20536;-82
2023/06/29 01:11:59;;;;;;;23.50;14.48;;;18.60;99.90;;;;;;5047212;28;20052;-82
2023/06/29 01:14:28;;;;;;;26.45;14.65;;;18.60;99.90;;;;;;5046871;28;20029;-83
2023/06/29 01:16:55;;;;;;;21.83;13.13;;;18.60;99.90;;;;;;5042556;28;20029;-82
2023/06/29 01:19:29;;;;;;;23.95;14.00;;;18.60;99.90;;;;;;5041729;28;20099;-81
2023/06/29 01:22:03;;;;;;;26.02;14.88;;;18.60;99.90;;;;;;5044250;28;20025;-83
2023/06/29 01:24:40;;;;;;;24.80;15.02;;;18.50;99.90;;;;;;5045930;28;20029;-82
2023/06/29 01:27:13;;;;;;;25.45;14.50;;;18.50;99.90;;;;;;5045854;28;20033;-82
2023/06/29 01:29:39;;;;;;;24.27;14.40;;;18.50;99.90;;;;;;5046098;28;20047;-83
2023/06/29 01:32:07;;;;;;;23.13;14.20;;;18.50;99.90;;;;;;5046682;28;20029;-82
2023/06/29 01:34:37;;;;;;;25.60;14.43;;;18.50;99.90;;;;;;5045219;28;20575;-82
2023/06/29 01:37:23;;;;;;;25.42;15.15;;;18.50;99.90;;;;;;5046546;28;20109;-82
2023/06/29 01:39:58;;;;;;;23.58;14.02;;;18.60;99.90;;;;;;5045145;28;20036;-82
2023/06/29 01:42:25;;;;;;;24.13;14.77;;;18.50;99.90;;;;;;5044905;28;20048;-82
2023/06/29 01:44:51;;;;;;;26.80;14.73;;;18.60;99.90;;;;;;5043914;28;20036;-82
2023/06/29 01:47:18;;;;;;;23.83;13.65;;;18.60;99.90;;;;;;5041614;28;20028;-82
2023/06/29 01:49:44;;;;;;;23.80;14.80;;;18.60;99.90;;;;;;5028470;28;20040;-82
2023/06/29 01:52:10;;;;;;;25.95;15.07;;;18.50;99.90;;;;;;5046002;28;20029;-82
2023/06/29 01:54:36;;;;;;;26.65;15.90;;;18.50;99.90;;;;;;5045609;28;20039;-82
2023/06/29 01:57:05;;;;;;;24.15;15.32;;;18.50;99.90;;;;;;5046132;28;20029;-82
2023/06/29 01:59:30;;;;;;;23.42;15.13;;;18.50;99.90;;;;;;5043824;28;20025;-82
2023/06/29 02:01:56;;;;;;;32.20;17.52;;;18.50;99.90;;;;;;5038061;28;20030;-83
2023/06/29 02:04:22;;;;;;;28.55;16.30;;;18.50;99.90;;;;;;5025757;28;20510;-82
2023/06/29 02:06:47;;;;;;;31.75;18.50;;;18.50;99.90;;;;;;5041387;28;20120;-82
2023/06/29 02:09:13;;;;;;;25.17;15.63;;;18.50;99.90;;;;;;5040360;28;20507;-81
2023/06/29 02:11:38;;;;;;;24.48;14.63;;;18.50;99.90;;;;;;5040864;28;20036;-83
2023/06/29 02:14:04;;;;;;;26.92;15.20;;;18.60;99.90;;;;;;5025352;28;20036;-82
2023/06/29 02:16:30;;;;;;;27.80;17.42;;;18.60;99.90;;;;;;5026230;28;20100;-82
2023/06/29 02:18:55;;;;;;;29.95;17.70;;;18.60;99.90;;;;;;5031871;28;20021;-82
2023/06/29 02:21:21;;;;;;;27.65;19.48;;;18.60;99.90;;;;;;5047789;28;20054;-82
2023/06/29 02:23:47;;;;;;;28.10;17.75;;;18.60;99.90;;;;;;5048825;28;20098;-82
2023/06/29 02:26:12;;;;;;;31.20;18.65;;;18.60;99.90;;;;;;5049165;28;20035;-82
2023/06/29 02:28:38;;;;;;;29.95;19.15;;;18.60;99.90;;;;;;5049555;28;20040;-83
2023/06/29 02:31:03;;;;;;;29.48;17.48;;;18.60;99.90;;;;;;5047722;28;20048;-82
2023/06/29 02:33:29;;;;;;;23.90;16.63;;;18.60;99.90;;;;;;5033420;28;20175;-82
2023/06/29 02:35:55;;;;;;;24.50;16.02;;;18.50;99.90;;;;;;5039187;28;20082;-82
2023/06/29 02:38:20;;;;;;;29.77;16.60;;;18.50;99.90;;;;;;5046188;28;20040;-82
2023/06/29 02:40:46;;;;;;;26.55;17.10;;;18.40;99.90;;;;;;5048442;28;20043;-82
2023/06/29 02:43:11;;;;;;;28.35;16.33;;;18.30;99.90;;;;;;5046818;28;20590;-82
2023/06/29 02:45:37;;;;;;;30.00;19.15;;;18.40;99.90;;;;;;5047691;28;20032;-82
2023/06/29 02:48:02;;;;;;;32.53;19.92;;;18.30;99.90;;;;;;5037716;28;20496;-82
2023/06/29 02:50:28;;;;;;;31.70;19.67;;;18.20;99.90;;;;;;5046620;28;20107;-82
2023/06/29 02:52:54;;;;;;;32.58;20.38;;;18.30;99.90;;;;;;5044459;28;20034;-80
2023/06/29 02:55:22;;;;;;;32.05;19.85;;;18.30;99.90;;;;;;5046369;28;20028;-82
2023/06/29 02:57:48;;;;;;;33.85;21.30;;;18.20;99.90;;;;;;5046982;28;20025;-82
2023/06/29 03:00:14;;;;;;;32.50;20.50;;;18.20;99.90;;;;;;5047227;28;20898;-82
2023/06/29 03:02:39;;;;;;;36.42;21.13;;;18.20;99.90;;;;;;5048008;28;20025;-82
2023/06/29 03:05:05;;;;;;;36.40;21.55;;;18.20;99.90;;;;;;5048332;28;20076;-82
2023/06/29 03:07:32;;;;;;;33.63;19.73;;;18.20;99.90;;;;;;5047078;28;20076;-82
2023/06/29 03:09:58;;;;;;;33.00;19.25;;;18.20;99.90;;;;;;5037149;28;20041;-82
2023/06/29 03:12:23;;;;;;;26.90;18.30;;;18.20;99.90;;;;;;5028541;28;20129;-82
2023/06/29 03:14:49;;;;;;;27.92;17.45;;;18.20;99.90;;;;;;5028121;28;20048;-82
2023/06/29 03:17:15;;;;;;;26.92;16.88;;;18.20;99.90;;;;;;5043403;28;20036;-82
2023/06/29 03:19:41;;;;;;;25.45;16.52;;;18.20;99.90;;;;;;5046557;28;20025;-82
2023/06/29 03:22:06;;;;;;;29.40;17.23;;;18.20;99.90;;;;;;5045916;28;20025;-82
2023/06/29 03:24:32;;;;;;;25.15;16.63;;;18.30;99.90;;;;;;5047147;28;20511;-82
2023/06/29 03:26:57;;;;;;;28.98;16.95;;;18.30;99.90;;;;;;5028354;28;20105;-82
2023/06/29 03:29:23;;;;;;;26.75;15.88;;;18.30;99.90;;;;;;5028339;28;20080;-82
2023/06/29 03:31:49;;;;;;;26.58;15.88;;;18.30;99.90;;;;;;5043255;28;20116;-82
2023/06/29 03:34:14;;;;;;;24.15;15.30;;;18.30;99.90;;;;;;5047159;28;20036;-82
2023/06/29 03:36:40;;;;;;;25.92;15.32;;;18.40;99.90;;;;;;5048384;28;20021;-82
2023/06/29 03:39:05;;;;;;;23.35;15.20;;;18.40;99.90;;;;;;5040396;28;20029;-82
2023/06/29 03:41:31;;;;;;;26.70;15.82;;;18.40;99.90;;;;;;5047867;28;20037;-82
2023/06/29 03:43:56;;;;;;;24.83;15.23;;;18.40;99.90;;;;;;5048122;28;20037;-82
2023/06/29 03:46:23;;;;;;;26.48;17.00;;;18.40;99.90;;;;;;5046941;28;20027;-82
2023/06/29 03:48:49;;;;;;;28.88;15.82;;;18.20;99.90;;;;;;5048016;28;20033;-82
2023/06/29 03:51:14;;;;;;;23.98;15.65;;;18.20;99.90;;;;;;5037521;28;20041;-82
2023/06/29 03:53:40;;;;;;;26.80;16.10;;;18.10;99.90;;;;;;5044492;28;20100;-83
2023/06/29 03:56:05;;;;;;;31.17;17.25;;;18.10;99.90;;;;;;5027404;28;20033;-82
2023/06/29 03:58:31;;;;;;;29.48;17.40;;;18.10;99.90;;;;;;5044963;28;20037;-82
2023/06/29 04:00:57;;;;;;;31.35;19.13;;;18.10;99.90;;;;;;5047740;28;20388;-82
2023/06/29 04:03:22;;;;;;;30.63;18.42;;;18.10;99.90;;;;;;5045162;28;20080;-82
2023/06/29 04:05:48;;;;;;;30.45;17.98;;;18.10;99.90;;;;;;5062743;28;20045;-82
2023/06/29 04:08:13;;;;;;;29.73;18.55;;;18.20;99.90;;;;;;5060977;28;20536;-82
2023/06/29 04:10:39;;;;;;;32.53;19.52;;;18.10;99.90;;;;;;5046666;28;20520;-82
2023/06/29 04:13:05;;;;;;;29.15;17.95;;;18.20;99.90;;;;;;5047020;28;20025;-83
2023/06/29 04:15:31;;;;;;;28.92;17.60;;;18.20;99.90;;;;;;5045710;28;20604;-83
2023/06/29 04:17:57;;;;;;;28.85;16.58;;;18.20;99.90;;;;;;5033390;28;20085;-83
2023/06/29 04:20:22;;;;;;;27.45;16.40;;;18.30;99.90;;;;;;5045173;28;20024;-83
2023/06/29 04:22:48;;;;;;;27.55;16.55;;;18.30;99.90;;;;;;5045872;28;20029;-83
2023/06/29 04:25:13;;;;;;;26.75;15.93;;;18.30;99.90;;;;;;5048108;28;20492;-83
2023/06/29 04:27:40;;;;;;;23.88;16.17;;;18.30;99.90;;;;;;5045993;28;20045;-83
2023/06/29 04:30:08;;;;;;;28.55;18.23;;;18.30;99.90;;;;;;5047199;28;20032;-82
2023/06/29 04:32:34;;;;;;;30.17;19.08;;;18.30;99.90;;;;;;5043523;28;20496;-83
2023/06/29 04:35:01;;;;;;;28.42;17.15;;;18.30;99.90;;;;;;5045585;28;20047;-82
2023/06/29 04:37:35;;;;;;;30.35;18.33;;;18.30;99.90;;;;;;5046245;28;20029;-82
2023/06/29 04:40:04;;;;;;;27.42;17.90;;;18.40;99.90;;;;;;5037748;28;20116;-83
2023/06/29 04:42:30;;;;;;;26.98;17.83;;;18.40;99.90;;;;;;5043790;28;20028;-82
2023/06/29 04:44:55;;;;;;;32.22;17.17;;;18.40;99.90;;;;;;5047130;28;20091;-82
2023/06/29 04:47:21;;;;;;;26.80;17.33;;;18.40;99.90;;;;;;5045313;28;20029;-83
2023/06/29 04:49:52;;;;;;;26.08;16.52;;;18.40;99.90;;;;;;5046838;28;20064;-82
2023/06/29 04:52:20;;;;;;;;;;;18.40;99.90;;;;;;5045938;28;20369;-83
2023/06/29 04:54:46;;;;;;;23.65;14.85;;;18.40;99.90;;;;;;5046022;28;19946;-83
2023/06/29 04:57:12;;;;;;;21.35;14.82;;;18.40;99.90;;;;;;5047368;28;20021;-83
2023/06/29 04:59:38;;;;;;;25.65;14.30;;;18.40;99.90;;;;;;5064224;28;20100;-83
2023/06/29 05:02:04;;;;;;;22.85;14.15;;;18.40;99.90;;;;;;5050097;28;20365;-82
2023/06/29 05:04:30;;;;;;;20.25;12.57;;;18.50;99.90;;;;;;5045553;28;20052;-83
2023/06/29 05:06:55;;;;;;;19.42;12.57;;;18.40;99.90;;;;;;5030547;28;20033;-83
2023/06/29 05:09:21;;;;;;;14.82;11.07;;;18.40;99.90;;;;;;5027108;28;20034;-82
2023/06/29 05:11:47;;;;;;;19.17;11.07;;;18.40;99.90;;;;;;5038203;28;20045;-83
2023/06/29 05:14:12;;;;;;;18.48;10.38;;;18.40;99.90;;;;;;5046238;28;20090;-82
2023/06/29 05:16:38;;;;;;;13.93;9.50;;;18.50;99.90;;;;;;5054717;28;20521;-82
2023/06/29 05:19:04;;;;;;;17.95;10.50;;;18.50;99.90;;;;;;5043980;28;20108;-82
2023/06/29 05:21:29;;;;;;;15.48;9.75;;;18.50;99.90;;;;;;5040841;28;20031;-81
2023/06/29 05:23:55;;;;;;;15.43;9.20;;;18.50;99.90;;;;;;5032526;28;20427;-82
2023/06/29 05:26:21;;;;;;;14.82;8.75;;;18.50;99.90;;;;;;5026690;28;20033;-82
2023/06/29 05:28:46;;;;;;;14.85;9.38;;;18.60;99.90;;;;;;5025774;28;20078;-82
2023/06/29 05:31:12;;;;;;;15.18;10.02;;;18.60;99.90;;;;;;5032549;28;20025;-82
2023/06/29 05:33:37;;;;;;;18.38;10.18;;;18.60;99.90;;;;;;5052653;28;20028;-82
2023/06/29 05:36:03;;;;;;;16.02;9.95;;;18.60;99.90;;;;;;5041362;28;20131;-82
2023/06/29 05:38:29;;;;;;;14.88;9.63;;;18.50;99.90;;;;;;5045022;28;20040;-82
2023/06/29 05:40:55;;;;;;;18.90;9.68;;;18.60;99.90;;;;;;5061323;28;20032;-82
2023/06/29 05:43:22;;;;;;;18.23;10.38;;;18.70;99.90;;;;;;5044353;28;20795;-82
2023/06/29 05:45:47;;;;;;;16.98;10.15;;;18.70;99.90;;;;;;5046107;28;20059;-81
2023/06/29 05:48:13;;;;;;;19.02;10.48;;;18.70;99.90;;;;;;5044089;28;20065;-82
2023/06/29 05:50:39;;;;;;;16.50;10.50;;;18.70;99.90;;;;;;5045658;28;20045;-82
2023/06/29 05:53:04;;;;;;;16.63;10.40;;;18.70;99.90;;;;;;5044595;28;20025;-82
2023/06/29 05:55:30;;;;;;;16.30;9.93;;;18.80;99.90;;;;;;5033406;28;20029;-82
2023/06/29 05:57:55;;;;;;;17.42;10.98;;;18.90;99.90;;;;;;5046034;28;20029;-82
2023/06/29 06:00:21;;;;;;;18.38;11.18;;;19.10;99.90;;;;;;5042197;28;20827;-81
2023/06/29 06:02:47;;;;;;;16.92;9.98;;;19.10;99.90;;;;;;5029818;28;20032;-82
2023/06/29 06:05:13;;;;;;;19.42;11.50;;;19.20;99.90;;;;;;5045252;28;20045;-82
2023/06/29 06:07:39;;;;;;;17.65;11.30;;;19.30;99.90;;;;;;5034701;28;20143;-83
2023/06/29 06:10:05;;;;;;;16.70;10.73;;;19.40;99.90;;;;;;5025134;28;20044;-83
2023/06/29 06:12:31;;;;;;;20.40;11.50;;;19.50;99.90;;;;;;5025382;28;20057;-83
2023/06/29 06:14:56;;;;;;;16.23;10.68;;;19.60;99.90;;;;;;5042490;28;20110;-83
2023/06/29 06:17:22;;;;;;;19.55;10.95;;;19.60;99.90;;;;;;5059681;28;20516;-83
2023/06/29 06:19:48;;;;;;;16.70;10.32;;;19.70;99.90;;;;;;5038841;28;20029;-82
2023/06/29 06:22:13;;;;;;;18.05;10.27;;;19.60;99.90;;;;;;5045566;28;20036;-81
2023/06/29 06:24:39;;;;;;;15.38;10.65;;;19.60;99.90;;;;;;5058339;28;20036;-82
2023/06/29 06:27:13;;;;;;;17.30;10.31;;;19.60;99.90;;;;;;4991998;28;10000869;-82
2023/06/29 06:29:39;;;;;;;17.00;10.40;;;19.60;99.90;;;;;;5042865;28;20356;-82
2023/06/29 06:32:04;;;;;;;16.65;10.20;;;19.60;99.90;;;;;;5037054;28;20492;-81
2023/06/29 06:34:30;;;;;;;18.83;11.68;;;19.70;99.90;;;;;;5039799;28;20029;-82
2023/06/29 06:36:57;;;;;;;18.02;10.73;;;19.70;99.90;;;;;;5041467;28;20024;-82
2023/06/29 06:39:23;;;;;;;14.85;9.95;;;19.80;99.90;;;;;;5040546;28;20039;-82
2023/06/29 06:41:49;;;;;;;18.45;10.85;;;19.90;99.90;;;;;;5045764;28;20467;-82
2023/06/29 06:44:15;;;;;;;16.55;10.30;;;19.90;99.90;;;;;;5043935;28;20184;-81
2023/06/29 06:46:40;;;;;;;14.65;9.98;;;20.10;99.90;;;;;;5045219;28;20124;-81
2023/06/29 06:49:06;;;;;;;15.27;9.68;;;20.10;99.90;;;;;;5045053;28;20078;-82
2023/06/29 06:51:32;;;;;;;13.48;8.63;;;20.20;99.90;;;;;;5045539;28;20846;-81
2023/06/29 06:53:57;;;;;;;15.30;9.07;;;20.20;99.90;;;;;;5044689;28;20818;-81
2023/06/29 06:56:23;;;;;;;14.65;8.80;;;20.20;99.90;;;;;;5042262;28;20033;-82
2023/06/29 06:58:48;;;;;;;17.20;10.13;;;20.10;99.90;;;;;;5044552;28;20121;-82
2023/06/29 07:01:16;;;;;;;13.73;9.00;;;20.00;99.90;;;;;;5043603;28;20484;-82
2023/06/29 07:03:41;;;;;;;13.95;9.00;;;20.00;99.90;;;;;;5041053;28;20101;-81
2023/06/29 07:06:07;;;;;;;14.93;8.93;;;20.00;99.90;;;;;;5042599;28;20591;-80
2023/06/29 07:08:34;;;;;;;14.60;9.15;;;20.00;99.90;;;;;;5037515;28;20029;-78
2023/06/29 07:10:59;;;;;;;14.23;8.40;;;20.00;99.90;;;;;;5039728;28;20284;-79
2023/06/29 07:13:25;;;;;;;14.75;9.13;;;20.00;99.90;;;;;;5044240;28;20025;-78
2023/06/29 07:15:51;;;;;;;11.27;7.43;;;19.90;99.90;;;;;;5052518;28;20032;-80
2023/06/29 07:18:16;;;;;;;7.55;4.70;;;19.70;99.90;;;;;;5040301;28;20033;-79
2023/06/29 07:20:42;;;;;;;7.18;4.03;;;19.30;99.90;;;;;;5036640;28;20033;-79
2023/06/29 07:23:08;;;;;;;4.15;2.30;;;19.10;99.90;;;;;;5037744;28;20036;-78
2023/06/29 07:25:33;;;;;;;1.63;1.30;;;18.80;99.90;;;;;;5032969;28;20480;-79
2023/06/29 07:27:59;;;;;;;2.13;1.10;;;18.50;99.90;;;;;;5031421;28;20029;-80
2023/06/29 07:30:25;;;;;;;1.40;0.60;;;18.40;99.90;;;;;;5043692;28;20041;-81
2023/06/29 07:32:52;;;;;;;1.77;0.50;;;18.30;99.90;;;;;;5039475;28;20025;-80
2023/06/29 07:35:17;;;;;;;3.05;0.22;;;18.20;99.90;;;;;;5033295;28;20039;-81
2023/06/29 07:37:43;;;;;;;1.30;0.50;;;17.90;99.90;;;;;;5036833;28;20504;-80
2023/06/29 07:40:09;;;;;;;0.60;0.40;;;17.90;99.90;;;;;;5034615;28;20029;-81
2023/06/29 07:42:34;;;;;;;3.72;0.40;;;17.90;99.90;;;;;;5034830;28;20098;-83
2023/06/29 07:45:00;;;;;;;0.17;0.10;;;17.80;99.90;;;;;;5037773;28;20108;-80
2023/06/29 07:47:26;;;;;;;0.30;0.10;;;17.80;99.90;;;;;;5039949;28;20090;-81
2023/06/29 07:49:51;;;;;;;0.57;0.10;;;17.70;99.90;;;;;;5048389;28;20037;-83
2023/06/29 07:52:17;;;;;;;0.10;0.10;;;17.70;99.90;;;;;;5031341;28;20702;-83
2023/06/29 07:54:43;;;;;;;1.27;0.20;;;17.60;99.90;;;;;;5043127;28;20044;-84
2023/06/29 07:57:08;;;;;;;1.85;0.20;;;17.70;99.90;;;;;;5039359;28;20104;-83
2023/06/29 07:59:34;;;;;;;0.47;0.10;;;17.60;99.90;;;;;;5036226;28;20756;-85
2023/06/29 08:01:59;;;;;;;0.43;0.20;;;17.70;99.90;;;;;;5043807;28;20059;-82
2023/06/29 08:04:25;;;;;;;0.40;0.20;;;17.70;99.90;;;;;;5045668;28;20044;-79
2023/06/29 08:06:50;;;;;;;0.00;0.00;;;17.60;99.90;;;;;;5040690;28;20031;-80
2023/06/29 08:09:16;;;;;;;0.05;0.05;;;17.50;99.90;;;;;;5042365;28;20037;-83
2023/06/29 08:11:42;;;;;;;2.42;0.10;;;17.50;99.90;;;;;;5043252;28;20407;-81
2023/06/29 08:14:07;;;;;;;0.52;0.10;;;17.60;99.90;;;;;;5038935;28;20049;-80
2023/06/29 08:16:33;;;;;;;0.15;0.10;;;17.60;99.90;;;;;;5038343;28;20040;-80
2023/06/29 08:18:59;;;;;;;0.68;0.10;;;17.70;99.90;;;;;;5040204;28;20496;-80
2023/06/29 08:21:25;;;;;;;0.63;0.10;;;17.80;99.90;;;;;;5047629;28;20032;-81
2023/06/29 08:23:51;;;;;;;0.35;0.20;;;17.70;99.90;;;;;;5037918;28;20614;-79
2023/06/29 08:26:17;;;;;;;0.20;0.10;;;17.70;99.90;;;;;;5039081;28;20029;-79
2023/06/29 08:28:43;;;;;;;0.70;0.40;;;17.80;99.90;;;;;;5036603;28;20021;-79
2023/06/29 08:31:10;;;;;;;1.95;0.20;;;17.80;99.90;;;;;;5032375;28;20045;-78
2023/06/29 08:33:35;;;;;;;1.70;0.10;;;17.90;99.90;;;;;;5041621;28;20028;-80
2023/06/29 08:36:01;;;;;;;0.15;0.10;;;18.00;99.90;;;;;;5042246;28;20496;-79
2023/06/29 08:38:26;;;;;;;0.55;0.20;;;18.10;99.90;;;;;;5041016;28;20098;-78
2023/06/29 08:40:53;;;;;;;2.03;0.20;;;18.40;99.90;;;;;;5043276;28;20553;-78
2023/06/29 08:43:19;;;;;;;0.50;0.20;;;18.50;99.90;;;;;;5036337;28;20032;-78
2023/06/29 08:45:45;;;;;;;0.40;0.20;;;18.50;99.90;;;;;;5043080;28;20047;-79
2023/06/29 08:48:14;;;;;;;0.28;0.20;;;18.70;99.90;;;;;;5041027;28;20052;-80
2023/06/29 08:50:51;;;;;;;1.75;0.20;;;18.90;99.90;;;;;;5042057;28;20045;-78
2023/06/29 08:53:17;;;;;;;0.40;0.20;;;18.80;99.90;;;;;;5045443;28;20111;-79
2023/06/29 08:55:43;;;;;;;0.20;0.10;;;18.90;99.90;;;;;;5046651;28;20060;-79
2023/06/29 08:58:09;;;;;;;1.38;0.10;;;19.20;99.90;;;;;;5037027;28;20108;-80
2023/06/29 09:00:37;;;;;;;1.52;0.20;;;19.40;99.90;;;;;;5038891;28;20025;-79
2023/06/29 09:03:03;;;;;;;0.63;0.20;;;19.40;99.90;;;;;;5044857;28;20032;-78
2023/06/29 09:05:29;;;;;;;0.20;0.10;;;19.70;99.90;;;;;;5042426;28;22019;-78
2023/06/29 09:07:56;;;;;;;1.13;0.22;;;19.70;99.90;;;;;;5038313;28;20037;-78
2023/06/29 09:10:22;;;;;;;0.10;0.10;;;20.00;99.90;;;;;;5034928;28;20048;-78
2023/06/29 09:12:50;;;;;;;0.30;0.20;;;20.40;99.90;;;;;;5029928;28;20035;-79
2023/06/29 09:15:16;;;;;;;1.65;0.30;;;20.70;99.90;;;;;;5040599;28;20039;-79
2023/06/29 09:17:46;;;;;;;0.75;0.50;;;21.10;99.90;;;;;;5036279;28;20515;-78
2023/06/29 09:20:15;;;;;;;1.75;0.80;;;21.50;99.90;;;;;;5043275;28;20033;-79
2023/06/29 09:22:42;;;;;;;1.13;0.40;;;21.60;99.90;;;;;;5038598;28;20499;-78
2023/06/29 09:25:13;;;;;;;0.77;0.30;;;21.40;99.90;;;;;;5041041;28;20522;-78
2023/06/29 09:27:39;;;;;;;0.40;0.30;;;21.30;99.90;;;;;;5038197;28;20025;-78
2023/06/29 09:30:06;;;;;;;0.40;0.30;;;21.10;99.90;;;;;;5036989;28;20045;-78
2023/06/29 09:32:36;;;;;;;1.23;0.35;;;21.20;99.90;;;;;;5043015;28;20021;-78
2023/06/29 09:35:07;;;;;;;4.53;0.43;;;21.20;99.90;;;;;;5038926;28;20036;-78
2023/06/29 09:37:33;;;;;;;2.55;0.57;;;21.00;99.90;;;;;;5034926;28;20059;-79
2023/06/29 09:39:59;;;;;;;1.00;0.50;;;21.00;99.90;;;;;;5032378;28;20408;-78
2023/06/29 09:42:29;;;;;;;1.63;0.75;;;21.10;99.90;;;;;;5036180;28;20028;-79
2023/06/29 09:45:01;;;;;;;0.40;0.40;;;21.10;99.90;;;;;;5038278;28;20029;-78
2023/06/29 09:47:26;;;;;;;1.92;0.70;;;21.50;99.90;;;;;;5044344;28;20511;-78
2023/06/29 09:49:52;;;;;;;1.52;1.00;;;22.00;99.90;;;;;;5038424;28;20034;-78
2023/06/29 09:52:19;;;;;;;2.00;0.88;;;22.40;99.90;;;;;;5043570;28;20143;-80
2023/06/29 09:54:44;;;;;;;2.22;0.75;;;23.00;99.90;;;;;;5036830;28;20043;-78
2023/06/29 09:57:11;;;;;;;0.73;0.60;;;24.30;99.90;;;;;;5040031;28;20036;-79
2023/06/29 09:59:40;;;;;;;1.70;0.60;;;26.10;99.90;;;;;;5036995;28;20036;-80
2023/06/29 10:02:09;;;;;;;1.05;0.60;;;27.70;99.90;;;;;;5037831;28;20032;-80
2023/06/29 10:04:36;;;;;;;0.60;0.50;;;28.00;99.90;;;;;;5039923;28;20108;-79
2023/06/29 10:07:10;;;;;;;2.25;0.90;;;27.80;99.90;;;;;;5038314;28;20035;-77
2023/06/29 10:09:38;;;;;;;0.98;0.70;;;27.00;99.90;;;;;;5042230;28;20029;-78
2023/06/29 10:12:15;;;;;;;1.52;0.85;;;26.40;99.90;;;;;;5037956;28;20040;-79
2023/06/29 10:14:43;;;;;;;1.27;0.70;;;25.50;99.90;;;;;;5042055;28;20026;-79
2023/06/29 10:17:15;;;;;;;2.25;0.80;;;24.80;99.90;;;;;;5042774;28;20458;-78
2023/06/29 10:19:43;;;;;;;0.77;0.70;;;24.50;99.90;;;;;;5026387;28;20029;-79
2023/06/29 10:22:13;;;;;;;1.80;0.68;;;24.70;99.90;;;;;;5043576;28;20057;-79
2023/06/29 10:24:51;;;;;;;0.80;0.80;;;24.20;99.90;;;;;;5048914;28;20033;-78
2023/06/29 10:27:19;;;;;;;2.63;0.70;;;24.20;99.90;;;;;;5039877;28;20074;-79
2023/06/29 10:29:46;;;;;;;0.88;0.57;;;24.10;99.90;;;;;;5039499;28;20028;-78
2023/06/29 10:32:34;;;;;;;1.45;0.90;;;24.00;99.90;;;;;;5039215;28;20029;-79
2023/06/29 10:35:08;;;;;;;1.00;0.70;;;23.60;99.90;;;;;;5030116;28;20029;-79
2023/06/29 10:37:35;;;;;;;0.93;0.63;;;23.70;99.90;;;;;;5037447;28;20018;-79
2023/06/29 10:40:05;;;;;;;1.23;0.52;;;23.80;99.90;;;;;;5032806;28;20037;-80
2023/06/29 10:42:36;;;;;;;1.38;0.80;;;23.90;99.90;;;;;;5041334;28;20544;-79
2023/06/29 10:45:02;;;;;;;2.72;0.95;;;24.00;99.90;;;;;;5040728;28;20032;-79
2023/06/29 10:47:36;;;;;;;7.45;3.60;;;23.80;99.90;;;;;;5039871;28;20483;-79
2023/06/29 10:50:08;;;;;;;1.83;0.90;;;23.80;99.90;;;;;;5034937;28;20194;-79
2023/06/29 10:52:34;;;;;;;1.63;0.90;;;23.70;99.90;;;;;;5033384;28;20785;-78
2023/06/29 10:55:23;;;;;;;1.40;1.00;;;23.80;99.90;;;;;;5051615;28;20028;-79
2023/06/29 10:57:58;;;;;;;1.80;0.80;;;23.60;99.90;;;;;;5058717;28;20622;-79
2023/06/29 11:00:25;;;;;;;3.25;0.90;;;23.60;99.90;;;;;;5040098;28;20052;-80
2023/06/29 11:02:52;;;;;;;3.28;0.90;;;23.60;99.90;;;;;;5039128;28;20036;-79
2023/06/29 11:05:19;;;;;;;1.45;0.90;;;23.90;99.90;;;;;;5026498;28;20045;-80
2023/06/29 11:07:52;;;;;;;1.02;0.90;;;24.10;99.90;;;;;;5031087;28;20052;-79
2023/06/29 11:10:21;;;;;;;2.22;0.90;;;24.50;99.90;;;;;;5028350;28;20033;-79
2023/06/29 11:12:50;;;;;;;1.27;0.85;;;24.80;99.90;;;;;;5039256;28;20040;-79
2023/06/29 11:15:17;;;;;;;1.60;1.00;;;24.80;99.90;;;;;;5040831;28;20047;-79
2023/06/29 11:17:44;;;;;;;1.98;1.00;;;24.60;99.90;;;;;;5047556;28;20028;-81
2023/06/29 11:20:15;;;;;;;1.20;0.90;;;24.70;99.90;;;;;;5041145;28;20037;-79
2023/06/29 11:22:42;;;;;;;2.72;1.02;;;24.30;99.90;;;;;;5030665;28;20932;-80
2023/06/29 11:25:17;;;;;;;1.27;1.00;;;23.90;99.90;;;;;;5044002;28;20416;-79
2023/06/29 11:27:44;;;;;;;1.75;1.10;;;23.00;99.90;;;;;;5039836;28;20195;-79
2023/06/29 11:30:10;;;;;;;1.23;1.00;;;22.40;99.90;;;;;;4696336;28;10000356;-79
2023/06/29 11:32:37;;;;;;;1.58;0.98;;;22.00;99.90;;;;;;5051455;28;20033;-79
2023/06/29 11:35:05;;;;;;;1.45;0.95;;;21.80;99.90;;;;;;5056283;28;20029;-79
2023/06/29 11:37:31;;;;;;;9.10;4.35;;;21.60;99.90;;;;;;5044701;28;20072;-79
2023/06/29 11:39:58;;;;;;;3.53;1.45;;;21.00;99.90;;;;;;5044017;28;20037;-80
2023/06/29 11:42:25;;;;;;;1.23;1.13;;;20.50;99.90;;;;;;5045057;28;20036;-82
2023/06/29 11:45:08;;;;;;;2.25;1.20;;;20.60;99.90;;;;;;5043731;28;20040;-79
2023/06/29 11:47:35;;;;;;;2.55;0.90;;;21.00;99.90;;;;;;5040780;28;20082;-79
2023/06/29 11:50:12;;;;;;;2.25;1.15;;;21.20;99.90;;;;;;5042914;28;20608;-81
2023/06/29 11:52:46;;;;;;;1.60;1.05;;;21.80;99.90;;;;;;5045169;28;20083;-82
2023/06/29 11:55:13;;;;;;;4.25;1.23;;;22.10;99.90;;;;;;5039584;28;20033;-82
2023/06/29 11:57:41;;;;;;;2.15;1.20;;;22.50;99.90;;;;;;5035726;28;20040;-83
2023/06/29 12:00:31;;;;;;;2.50;1.25;;;23.20;99.90;;;;;;5042747;28;20116;-83
2023/06/29 12:03:04;;;;;;;3.65;1.50;;;24.10;99.90;;;;;;5041453;28;20025;-83
2023/06/29 12:05:30;;;;;;;2.45;1.45;;;24.70;99.90;;;;;;5040298;28;20508;-83
2023/06/29 12:08:04;;;;;;;2.08;1.20;;;24.90;99.90;;;;;;5055157;28;20091;-83
2023/06/29 12:10:37;;;;;;;2.10;1.20;;;24.80;99.90;;;;;;5042224;28;20036;-82
2023/06/29 12:13:03;;;;;;;4.32;1.60;;;24.50;99.90;;;;;;5038519;28;20163;-86
2023/06/29 12:15:32;;;;;;;3.03;1.40;;;24.30;99.90;;;;;;5054682;28;20033;-85
2023/06/29 12:18:14;;;;;;;2.72;1.63;;;24.70;99.90;;;;;;5039358;28;20053;-85
2023/06/29 12:20:46;;;;;;;1.90;1.10;;;25.00;99.90;;;;;;5040156;28;20036;-85
2023/06/29 12:23:13;;;;;;;2.53;1.20;;;25.80;99.90;;;;;;5038481;28;20427;-84
2023/06/29 12:25:51;;;;;;;1.92;1.20;;;25.90;99.90;;;;;;5036326;28;20029;-85
2023/06/29 12:28:17;;;;;;;1.85;1.40;;;25.90;99.90;;;;;;5034486;28;20033;-85
2023/06/29 12:30:43;;;;;;;1.60;1.08;;;25.90;99.90;;;;;;5030257;28;20048;-84
2023/06/29 12:33:11;;;;;;;1.40;0.80;;;26.50;99.90;;;;;;5037929;28;20036;-84
2023/06/29 12:35:37;;;;;;;1.35;0.80;;;26.70;99.90;;;;;;5044192;28;20047;-84